Time;durP1;ratioP1;P1;durP2;ratioP2;P2;SDS_P1;SDS_P2;PMS_P1;PMS_P2;Temp;Humidity;BMP_temperature;BMP_pressure;BME280_temperature;BME280_humidity;BME280_pressure;Samples;Min_cycle;Max_cycle;Signal;HPM_P1;HPM_P2
2024/01/11 21:10:53;;;;;;;17.53;12.77;;;;;;;-1.33;68.93;98393.31;6261324;27;20437;-93
2024/01/11 21:13:58;;;;;;;19.10;11.57;;;;;;;-2.71;68.09;98186.44;6231740;28;20208;-92
2024/01/11 21:17:20;;;;;;;16.67;12.55;;;;;;;-2.57;66.95;98175.53;6266085;28;20435;-91
2024/01/11 21:20:22;;;;;;;15.07;10.37;;;;;;;-0.54;67.27;98495.41;6252551;28;20224;-92
2024/01/11 21:23:25;;;;;;;16.77;10.57;;;;;;;-2.48;67.94;98224.22;6236785;28;20219;-92
2024/01/11 21:26:28;;;;;;;16.07;10.83;;;;;;;-2.06;67.16;98273.28;6251790;28;20233;-92
2024/01/11 21:29:31;;;;;;;14.87;9.83;;;;;;;-2.81;68.30;98215.19;6236772;28;20211;-93
2024/01/11 21:32:36;;;;;;;18.07;11.17;;;;;;;-1.41;69.36;98433.28;6239106;28;20207;-93
2024/01/11 21:35:42;;;;;;;14.13;10.00;;;;;;;-2.83;68.11;98209.28;6231529;28;20203;-91
2024/01/11 21:38:50;;;;;;;16.83;10.10;;;;;;;-1.67;68.84;98383.53;6262974;28;20259;-92
2024/01/11 21:41:53;;;;;;;16.43;10.00;;;;;;;-0.76;68.70;98521.19;6250589;28;20201;-92
2024/01/11 21:44:58;;;;;;;16.53;10.53;;;;;;;-3.00;68.55;98166.59;6273754;28;20196;-91
2024/01/11 21:48:05;;;;;;;18.90;10.57;;;;;;;-3.14;68.66;98180.91;6240975;28;20213;-93
2024/01/11 21:51:15;;;;;;;16.93;11.03;;;;;;;-2.71;68.83;98233.38;6232945;28;20193;-92
2024/01/11 21:54:19;;;;;;;16.00;10.50;;;;;;;-1.94;68.74;98316.47;6239555;28;20212;-92
2024/01/11 21:57:21;;;;;;;17.37;10.40;;;;;;;-1.66;69.13;98379.94;6231698;28;20264;-92
2024/01/11 22:00:23;;;;;;;17.10;10.77;;;;;;;-0.80;68.07;98500.53;6264848;27;20196;-94
2024/01/11 22:03:27;;;;;;;17.90;10.57;;;;;;;-3.00;70.61;98203.06;6243759;28;20299;-90
2024/01/11 22:06:31;;;;;;;18.97;10.90;;;;;;;-3.21;70.33;98205.84;6256654;28;20211;-93
2024/01/11 22:09:34;;;;;;;17.90;11.07;;;;;;;-1.60;68.26;98368.09;6248329;28;20223;-92
2024/01/11 22:12:36;;;;;;;21.03;12.00;;;;;;;-2.09;69.26;98350.09;6235346;28;20199;-94
2024/01/11 22:15:46;;;;;;;21.43;12.30;;;;;;;-0.67;70.39;98578.69;6264023;28;20197;-93
2024/01/11 22:19:02;;;;;;;19.90;12.10;;;;;;;-2.67;70.10;98229.53;6247280;28;20193;-93
2024/01/11 22:22:08;;;;;;;18.90;12.50;;;;;;;-1.68;70.17;98375.81;6213492;28;20199;-92
2024/01/11 22:25:12;;;;;;;20.30;12.13;;;;;;;-0.72;70.29;98504.22;6248587;28;20201;-94
2024/01/11 22:28:18;;;;;;;18.57;12.67;;;;;;;-1.58;68.24;98369.59;6215468;28;20213;-91
2024/01/11 22:31:21;;;;;;;17.90;12.00;;;;;;;-1.79;67.23;98313.38;6245943;28;20219;-93
2024/01/11 22:34:24;;;;;;;19.90;13.57;;;;;;;-0.39;69.69;98568.97;6233738;28;20276;-94
2024/01/11 22:37:26;;;;;;;17.37;11.80;;;;;;;-0.87;67.83;98483.00;6249469;28;20204;-93
2024/01/11 22:40:29;;;;;;;22.47;13.37;;;;;;;-0.76;69.15;98522.00;6213332;28;20614;-94
2024/01/11 22:43:35;;;;;;;20.17;13.40;;;;;;;-2.40;67.78;98249.59;6207033;28;20203;-93
2024/01/11 22:46:37;;;;;;;24.63;14.90;;;;;;;-2.64;68.80;98250.94;6209525;28;20209;-93
2024/01/11 22:49:42;;;;;;;23.67;15.63;;;;;;;-1.05;67.96;98465.50;6224371;28;20213;-93
2024/01/11 22:52:44;;;;;;;22.93;14.70;;;;;;;-0.39;68.23;98571.59;6206536;28;20200;-94
2024/01/11 22:55:47;;;;;;;26.33;15.73;;;;;;;-2.50;66.97;98231.38;6240368;28;20201;-92
2024/01/11 22:58:49;;;;;;;24.40;14.73;;;;;;;-1.52;67.76;98441.34;6216778;28;20571;-92
2024/01/11 23:01:51;;;;;;;23.47;14.97;;;;;;;-2.45;68.53;98290.94;6224396;28;20201;-93
2024/01/11 23:04:53;;;;;;;25.93;15.93;;;;;;;-0.72;68.01;98502.44;6236334;28;20211;-93
2024/01/11 23:08:02;;;;;;;25.93;16.70;;;;;;;-2.12;68.69;98339.94;6215132;28;20203;-93
2024/01/11 23:11:05;;;;;;;27.90;16.53;;;;;;;-1.40;68.74;98440.16;6199176;28;20206;-92
2024/01/11 23:14:27;;;;;;;27.20;16.47;;;;;;;-2.65;68.25;98232.84;6256601;28;20724;-93
2024/01/11 23:17:34;;;;;;;29.43;17.57;;;;;;;-1.99;69.97;98350.03;6221274;28;20697;-91
2024/01/11 23:20:42;;;;;;;28.13;18.17;;;;;;;-1.97;70.30;98384.66;6205089;28;20645;-92
2024/01/11 23:23:45;;;;;;;29.73;18.93;;;;;;;-0.79;69.84;98538.00;6214271;28;20199;-92
2024/01/11 23:26:50;;;;;;;31.10;19.30;;;;;;;-1.23;70.42;98488.22;6221481;28;20192;-91
2024/01/11 23:29:53;;;;;;;31.90;18.87;;;;;;;-1.46;69.50;98448.56;6205768;28;20255;-92
2024/01/11 23:32:55;;;;;;;27.97;18.07;;;;;;;-0.84;69.07;98507.06;6237665;28;20196;-91
2024/01/11 23:35:57;;;;;;;27.23;17.37;;;;;;;-2.26;68.87;98283.03;6229324;28;20196;-92
2024/01/11 23:39:00;;;;;;;27.63;16.80;;;;;;;-0.68;68.37;98513.44;6234589;28;20222;-91
2024/01/11 23:42:02;;;;;;;31.47;18.80;;;;;;;-1.59;69.05;98383.59;6242379;28;20219;-90
2024/01/11 23:45:05;;;;;;;29.23;17.67;;;;;;;-0.61;69.34;98544.06;6261314;22;20237;-47
2024/01/11 23:48:09;;;;;;;30.70;18.57;;;;;;;-0.62;69.62;98555.50;6184733;28;20200;-49
2024/01/11 23:51:12;;;;;;;34.80;19.30;;;;;;;-0.60;70.17;98544.88;6175602;28;20190;-49
2024/01/11 23:54:15;;;;;;;31.97;18.30;;;;;;;-0.60;69.98;98543.09;6159072;28;20205;-49
2024/01/11 23:57:18;;;;;;;29.67;18.10;;;;;;;-0.56;69.37;98547.03;6187134;28;20197;-50
